Aviation Digital Data Service (ADDS)

Output produced by METARs form (2206 UTC 23 April 2014)
found at http://aviationweather.gov/adds/metars/
 
KCON 231958Z 2320/2418 33019G30KT P6SM OVC040 
     FM240100 31015G21KT P6SM BKN050 
     FM241300 31022G35KT P6SM SCT050